Time;durP1;ratioP1;P1;durP2;ratioP2;P2;SDS_P1;SDS_P2;PMS_P1;PMS_P2;Temp;Humidity;BMP_temperature;BMP_pressure;BME280_temperature;BME280_humidity;BME280_pressure;Samples;Min_cycle;Max_cycle;Signal;HPM_P1;HPM_P2
2024/02/01 08:10:58;;;;;;;3.40;1.03;;;9.70;99.90;;;;;;4759519;26;20327;-78
2024/02/01 08:13:26;;;;;;;5.43;1.33;;;10.00;99.90;;;;;;4930714;29;20300;-79
2024/02/01 08:15:54;;;;;;;7.80;1.40;;;10.00;99.90;;;;;;4916178;29;20289;-79
2024/02/01 08:18:21;;;;;;;10.93;0.90;;;10.30;99.90;;;;;;4928041;29;20255;-78
2024/02/01 08:20:48;;;;;;;4.57;1.40;;;10.60;99.90;;;;;;4917379;29;20636;-79
2024/02/01 08:23:19;;;;;;;2.57;0.73;;;11.00;99.90;;;;;;4917252;29;20214;-78
2024/02/01 08:25:46;;;;;;;5.63;1.53;;;11.20;99.90;;;;;;4915599;29;20229;-78
2024/02/01 08:28:15;;;;;;;8.07;1.10;;;11.40;99.90;;;;;;4933318;29;20679;-76
2024/02/01 08:30:42;;;;;;;4.13;0.67;;;11.50;99.90;;;;;;4925979;29;20228;-76
2024/02/01 08:33:16;;;;;;;3.60;0.93;;;11.60;99.90;;;;;;4916713;29;20206;-77
2024/02/01 08:35:43;;;;;;;5.13;1.13;;;11.70;99.90;;;;;;4916762;29;20659;-78
2024/02/01 08:38:11;;;;;;;3.83;0.60;;;11.70;99.90;;;;;;4929171;29;20711;-80
2024/02/01 08:40:41;;;;;;;5.57;0.70;;;11.70;99.90;;;;;;4926334;29;20201;-80
2024/02/01 08:43:09;;;;;;;11.57;1.10;;;11.80;99.90;;;;;;4924443;29;20204;-80
2024/02/01 08:45:39;;;;;;;8.87;1.00;;;11.80;99.90;;;;;;4925810;29;20686;-80
2024/02/01 08:48:08;;;;;;;4.63;1.00;;;11.80;99.90;;;;;;4927452;29;20208;-80
2024/02/01 08:50:42;;;;;;;4.40;0.67;;;11.70;99.90;;;;;;4935840;29;20213;-80
2024/02/01 08:53:10;;;;;;;5.80;0.80;;;11.40;99.90;;;;;;4935974;29;20211;-80
2024/02/01 08:55:37;;;;;;;3.07;0.60;;;11.40;99.90;;;;;;4935501;29;20315;-79
2024/02/01 08:58:09;;;;;;;6.40;0.97;;;11.40;99.90;;;;;;4935684;29;20247;-80
2024/02/01 09:00:38;;;;;;;6.10;1.00;;;11.40;99.90;;;;;;4935692;29;20664;-79
2024/02/01 09:03:08;;;;;;;6.77;0.80;;;11.00;99.90;;;;;;4935412;29;20264;-79
2024/02/01 09:05:37;;;;;;;9.10;0.80;;;10.70;99.90;;;;;;4935615;29;20216;-80
2024/02/01 09:08:04;;;;;;;3.43;0.80;;;10.80;99.90;;;;;;4935595;29;20260;-80
2024/02/01 09:10:32;;;;;;;2.40;0.60;;;10.70;99.90;;;;;;4935779;29;20217;-80
2024/02/01 09:12:59;;;;;;;5.70;1.07;;;10.70;99.90;;;;;;4935632;29;20260;-80
2024/02/01 09:15:26;;;;;;;5.17;0.80;;;10.60;99.90;;;;;;4935813;29;20244;-80
2024/02/01 09:17:56;;;;;;;4.47;0.80;;;10.70;99.90;;;;;;4935755;29;20437;-80
2024/02/01 09:20:25;;;;;;;5.43;1.00;;;10.80;99.90;;;;;;4935477;29;20213;-80
2024/02/01 09:22:53;;;;;;;6.90;0.90;;;10.60;99.90;;;;;;4936010;29;20304;-80
2024/02/01 09:25:21;;;;;;;1.90;0.50;;;10.60;99.90;;;;;;4935563;29;20648;-81
2024/02/01 09:27:49;;;;;;;5.67;0.93;;;10.60;99.90;;;;;;4939142;29;20259;-80
2024/02/01 09:30:19;;;;;;;4.43;0.87;;;10.70;99.90;;;;;;4939590;29;20235;-80
2024/02/01 09:32:49;;;;;;;3.23;0.50;;;10.60;99.90;;;;;;4939524;29;20544;-80
2024/02/01 09:35:18;;;;;;;8.30;1.00;;;10.60;99.90;;;;;;4939520;29;20284;-79
2024/02/01 09:37:45;;;;;;;6.50;0.70;;;10.70;99.90;;;;;;4939193;29;20834;-80
2024/02/01 09:40:12;;;;;;;3.37;0.80;;;10.50;99.90;;;;;;4939328;29;20677;-80
2024/02/01 09:42:41;;;;;;;5.00;0.63;;;10.60;99.90;;;;;;4939076;29;20209;-79
2024/02/01 09:45:09;;;;;;;4.40;0.90;;;10.40;99.90;;;;;;4939246;29;20295;-79
2024/02/01 09:47:43;;;;;;;1.90;0.50;;;10.50;99.90;;;;;;4939192;29;20236;-79
2024/02/01 09:50:13;;;;;;;1.63;0.50;;;10.40;99.90;;;;;;4939051;29;20217;-79
2024/02/01 09:52:44;;;;;;;5.80;0.80;;;10.30;99.90;;;;;;4938869;29;20213;-80
2024/02/01 09:55:16;;;;;;;1.33;0.43;;;10.30;99.90;;;;;;4939130;29;20341;-79
2024/02/01 09:57:45;;;;;;;1.17;0.40;;;10.10;99.90;;;;;;4938555;29;20671;-79
2024/02/01 10:00:18;;;;;;;7.73;0.80;;;10.20;99.90;;;;;;4939579;29;20209;-79
2024/02/01 10:02:47;;;;;;;7.17;1.67;;;10.10;99.90;;;;;;4941004;29;20208;-79
2024/02/01 10:05:15;;;;;;;10.20;1.10;;;10.10;99.90;;;;;;4957621;29;20306;-78
2024/02/01 10:07:44;;;;;;;3.50;0.53;;;10.10;99.90;;;;;;4957903;29;20259;-78
2024/02/01 10:10:13;;;;;;;5.00;0.80;;;10.10;99.90;;;;;;4957312;29;20215;-78
2024/02/01 10:12:41;;;;;;;10.40;1.07;;;10.00;99.90;;;;;;4944494;29;20200;-77
2024/02/01 10:15:10;;;;;;;4.67;0.60;;;9.90;99.90;;;;;;4931730;29;20545;-80
2024/02/01 10:17:46;;;;;;;2.43;0.40;;;9.90;99.90;;;;;;4928727;29;20328;-78
2024/02/01 10:20:33;;;;;;;5.50;1.13;;;10.00;99.90;;;;;;4930693;29;20287;-76
2024/02/01 10:23:03;;;;;;;4.80;0.50;;;9.80;99.90;;;;;;4935252;29;20635;-77
2024/02/01 10:25:34;;;;;;;5.40;1.10;;;9.90;99.90;;;;;;4936423;29;20212;-80
2024/02/01 10:28:06;;;;;;;4.43;0.70;;;9.90;99.90;;;;;;4925875;29;20213;-79
2024/02/01 10:30:34;;;;;;;6.43;0.80;;;9.80;99.90;;;;;;4928742;29;20608;-78
2024/02/01 10:33:03;;;;;;;6.70;1.23;;;9.80;99.90;;;;;;4928077;29;20247;-77
2024/02/01 10:35:32;;;;;;;3.23;0.73;;;9.80;99.90;;;;;;4927576;29;20197;-80
2024/02/01 10:38:11;;;;;;;6.97;0.83;;;9.70;99.90;;;;;;4929450;29;20249;-84
2024/02/01 10:40:45;;;;;;;7.57;0.63;;;9.60;99.90;;;;;;4927984;29;20723;-81
2024/02/01 10:43:18;;;;;;;4.97;0.67;;;9.60;99.90;;;;;;4929139;29;20213;-80
2024/02/01 10:45:50;;;;;;;6.37;0.80;;;9.60;99.90;;;;;;4923904;29;20257;-81
2024/02/01 10:48:19;;;;;;;6.10;1.63;;;9.70;99.90;;;;;;4919959;29;20590;-80
2024/02/01 10:50:49;;;;;;;2.87;0.60;;;9.80;99.90;;;;;;4918706;29;20224;-83
2024/02/01 10:53:20;;;;;;;2.90;0.60;;;10.00;99.90;;;;;;4934560;29;20251;-81
2024/02/01 10:55:49;;;;;;;3.43;0.70;;;10.00;99.90;;;;;;4939598;29;20244;-81
2024/02/01 10:58:20;;;;;;;4.43;1.10;;;10.00;99.90;;;;;;4924436;29;20300;-82
2024/02/01 11:00:48;;;;;;;3.03;0.60;;;10.10;99.90;;;;;;4917455;29;20220;-79
2024/02/01 11:03:16;;;;;;;3.97;1.00;;;10.20;99.90;;;;;;4933094;29;20691;-81
2024/02/01 11:05:44;;;;;;;4.20;1.07;;;10.20;99.90;;;;;;4936786;29;20235;-81
2024/02/01 11:08:18;;;;;;;2.90;0.80;;;10.10;99.90;;;;;;4925651;29;20289;-80
2024/02/01 11:10:53;;;;;;;4.43;0.60;;;10.00;99.90;;;;;;4934057;29;20284;-81
2024/02/01 11:13:30;;;;;;;9.10;0.70;;;10.00;99.90;;;;;;4922818;29;20249;-80
2024/02/01 11:15:58;;;;;;;8.20;1.20;;;10.00;99.90;;;;;;4937754;29;20260;-80
2024/02/01 11:18:27;;;;;;;7.33;0.67;;;9.90;99.90;;;;;;4939151;29;20244;-77
2024/02/01 11:20:57;;;;;;;3.97;0.73;;;10.00;99.90;;;;;;4947221;29;20211;-80
2024/02/01 11:23:26;;;;;;;5.07;1.17;;;10.10;99.90;;;;;;4921383;29;20209;-79
2024/02/01 11:25:59;;;;;;;5.93;0.70;;;10.00;99.90;;;;;;4916778;29;20693;-77
2024/02/01 11:28:30;;;;;;;6.50;0.83;;;9.90;99.90;;;;;;4917238;29;20206;-78
2024/02/01 11:31:01;;;;;;;5.10;1.03;;;9.90;99.90;;;;;;4946016;29;20644;-79
2024/02/01 11:33:29;;;;;;;4.50;0.50;;;10.00;99.90;;;;;;4921460;29;20692;-80
2024/02/01 11:36:00;;;;;;;3.20;0.60;;;10.00;99.90;;;;;;4924456;29;20238;-80
2024/02/01 11:38:29;;;;;;;5.27;0.63;;;10.10;99.90;;;;;;4932873;29;20251;-78
2024/02/01 11:40:56;;;;;;;6.07;0.70;;;10.00;99.90;;;;;;4935432;29;20221;-77
2024/02/01 11:43:23;;;;;;;6.50;1.03;;;10.00;99.90;;;;;;4936969;29;20213;-77
2024/02/01 11:45:55;;;;;;;2.00;0.60;;;10.10;99.90;;;;;;4936924;29;20225;-77
2024/02/01 11:48:23;;;;;;;5.63;0.93;;;10.10;99.90;;;;;;4936861;29;20268;-77
2024/02/01 11:50:53;;;;;;;4.40;0.90;;;10.20;99.90;;;;;;4932904;29;20205;-77
2024/02/01 11:53:21;;;;;;;6.87;0.60;;;10.30;99.90;;;;;;4935828;29;20216;-78
2024/02/01 11:55:54;;;;;;;4.63;0.60;;;10.20;99.90;;;;;;4936280;29;20244;-78
2024/02/01 11:58:22;;;;;;;6.37;0.70;;;10.10;99.90;;;;;;4936344;29;20272;-77
2024/02/01 12:00:55;;;;;;;2.57;0.70;;;10.10;99.90;;;;;;4935531;29;20207;-78
2024/02/01 12:03:22;;;;;;;4.63;0.87;;;10.10;99.90;;;;;;4935930;29;20304;-77
2024/02/01 12:05:51;;;;;;;2.13;0.60;;;10.30;99.90;;;;;;4927815;29;20279;-78
2024/02/01 12:08:19;;;;;;;9.13;0.97;;;10.30;99.90;;;;;;4928357;29;20206;-78
2024/02/01 12:10:46;;;;;;;6.90;0.90;;;10.40;99.90;;;;;;4916734;29;20224;-78
2024/02/01 12:13:16;;;;;;;3.60;0.50;;;10.20;99.90;;;;;;4917567;29;20304;-76
2024/02/01 12:15:44;;;;;;;2.97;0.40;;;10.30;99.90;;;;;;4917149;29;20301;-77
2024/02/01 12:18:13;;;;;;;3.40;0.40;;;10.20;99.90;;;;;;4916004;29;20633;-79
2024/02/01 12:20:42;;;;;;;3.77;0.47;;;10.20;99.90;;;;;;4916595;29;20305;-78
2024/02/01 12:23:11;;;;;;;3.73;0.80;;;10.30;99.90;;;;;;4917074;29;20220;-79
2024/02/01 12:25:39;;;;;;;9.00;0.80;;;10.40;99.90;;;;;;4917111;29;20229;-78
2024/02/01 12:28:11;;;;;;;5.00;0.80;;;10.50;99.90;;;;;;4921412;29;20223;-78
2024/02/01 12:30:42;;;;;;;5.57;0.70;;;10.50;99.90;;;;;;4926873;29;20739;-77
2024/02/01 12:33:12;;;;;;;2.50;0.70;;;10.30;99.90;;;;;;4926700;29;20209;-77
2024/02/01 12:35:41;;;;;;;5.97;0.77;;;10.30;99.90;;;;;;4926100;29;20299;-78
2024/02/01 12:38:09;;;;;;;3.90;0.80;;;10.20;99.90;;;;;;4933829;29;20232;-79
2024/02/01 12:40:36;;;;;;;2.07;1.10;;;10.30;99.90;;;;;;4935772;29;20209;-78
2024/02/01 12:43:04;;;;;;;4.63;0.97;;;10.40;99.90;;;;;;4936119;29;20209;-78
2024/02/01 12:45:32;;;;;;;5.17;0.83;;;10.30;99.90;;;;;;4932192;29;20592;-77
2024/02/01 12:48:00;;;;;;;7.63;1.73;;;10.20;99.90;;;;;;4935847;29;20288;-79
2024/02/01 12:50:28;;;;;;;6.43;0.60;;;10.20;99.90;;;;;;4936097;29;20209;-79
2024/02/01 12:52:55;;;;;;;7.67;0.90;;;10.40;99.90;;;;;;4936054;29;20608;-80
2024/02/01 12:55:22;;;;;;;4.00;1.20;;;10.60;99.90;;;;;;4935580;29;20572;-80
2024/02/01 12:57:49;;;;;;;3.27;0.63;;;10.60;99.90;;;;;;4935509;29;20235;-79
2024/02/01 13:00:17;;;;;;;6.03;0.60;;;10.50;99.90;;;;;;4935706;29;20298;-78
2024/02/01 13:02:45;;;;;;;8.17;1.23;;;10.60;99.90;;;;;;4935435;29;20263;-75
2024/02/01 13:05:15;;;;;;;4.53;0.60;;;10.60;99.90;;;;;;4935889;29;20613;-78
2024/02/01 13:07:42;;;;;;;2.60;0.40;;;10.50;99.90;;;;;;4935972;29;20315;-76
2024/02/01 13:10:14;;;;;;;6.00;1.03;;;10.50;99.90;;;;;;4935471;29;20216;-78
2024/02/01 13:12:54;;;;;;;5.27;0.83;;;10.50;99.90;;;;;;4935323;29;20220;-80
2024/02/01 13:15:23;;;;;;;8.20;0.93;;;10.50;99.90;;;;;;4935489;29;20205;-81
2024/02/01 13:17:51;;;;;;;5.63;0.40;;;10.50;99.90;;;;;;4935742;29;20213;-79
2024/02/01 13:20:20;;;;;;;6.20;0.87;;;10.50;99.90;;;;;;4935289;29;20571;-78
2024/02/01 13:22:50;;;;;;;2.50;0.97;;;10.60;99.90;;;;;;4935365;29;20212;-79
2024/02/01 13:25:19;;;;;;;2.87;0.57;;;10.50;99.90;;;;;;4935251;29;20209;-75
2024/02/01 13:27:48;;;;;;;4.07;0.83;;;10.40;99.90;;;;;;4935842;29;20217;-76
2024/02/01 13:30:16;;;;;;;3.53;0.83;;;10.30;99.90;;;;;;4935685;29;20219;-79
2024/02/01 13:32:44;;;;;;;2.93;0.43;;;10.40;99.90;;;;;;4935883;29;20244;-79
2024/02/01 13:35:11;;;;;;;7.57;0.80;;;10.50;99.90;;;;;;4935415;29;20209;-79
2024/02/01 13:37:39;;;;;;;5.37;0.77;;;10.60;99.90;;;;;;4935452;29;20569;-79
2024/02/01 13:40:14;;;;;;;4.23;1.07;;;10.70;99.90;;;;;;4935491;29;20225;-78
2024/02/01 13:42:41;;;;;;;6.43;0.90;;;10.70;99.90;;;;;;4935521;29;20216;-79
2024/02/01 13:45:09;;;;;;;6.23;0.67;;;10.40;99.90;;;;;;4935687;29;20288;-79
2024/02/01 13:47:36;;;;;;;2.70;0.70;;;10.30;99.90;;;;;;4935065;29;20228;-79
2024/02/01 13:50:04;;;;;;;5.93;0.80;;;10.30;99.90;;;;;;4935396;29;20240;-80
2024/02/01 13:52:31;;;;;;;3.93;0.70;;;10.30;99.90;;;;;;4935113;29;20273;-79
2024/02/01 13:55:00;;;;;;;2.83;0.77;;;10.50;99.90;;;;;;4935183;29;20213;-78
2024/02/01 13:57:27;;;;;;;4.53;0.90;;;10.50;99.90;;;;;;4934907;29;20794;-79
2024/02/01 13:59:55;;;;;;;2.73;0.80;;;10.60;99.90;;;;;;4934899;29;20327;-78
2024/02/01 14:02:22;;;;;;;3.87;0.60;;;10.60;99.90;;;;;;4935307;29;20232;-77
2024/02/01 14:04:49;;;;;;;2.43;1.03;;;10.50;99.90;;;;;;4934842;29;20652;-76
2024/02/01 14:07:16;;;;;;;2.00;0.60;;;10.40;99.90;;;;;;4935207;29;20235;-75
2024/02/01 14:09:43;;;;;;;2.97;0.60;;;10.30;99.90;;;;;;4934735;29;20221;-78
2024/02/01 14:12:11;;;;;;;6.23;0.80;;;10.20;99.90;;;;;;4934947;29;20213;-78
2024/02/01 14:14:38;;;;;;;2.00;0.43;;;10.30;99.90;;;;;;4938060;29;20252;-79
2024/02/01 14:17:06;;;;;;;9.60;0.93;;;10.40;99.90;;;;;;4938495;29;20231;-78
2024/02/01 14:19:33;;;;;;;7.93;1.00;;;10.40;99.90;;;;;;4938440;29;20240;-78
2024/02/01 14:22:00;;;;;;;1.17;0.60;;;10.50;99.90;;;;;;4938462;29;20652;-77
2024/02/01 14:24:27;;;;;;;1.83;0.60;;;10.40;99.90;;;;;;4938086;29;20241;-76
2024/02/01 14:26:54;;;;;;;4.57;0.70;;;10.40;99.90;;;;;;4938210;29;20259;-79
2024/02/01 14:29:22;;;;;;;3.70;0.57;;;10.50;99.90;;;;;;4938309;29;20205;-79
2024/02/01 14:31:49;;;;;;;4.27;0.90;;;10.40;99.90;;;;;;4938398;29;20295;-78
2024/02/01 14:34:16;;;;;;;2.40;0.53;;;10.50;99.90;;;;;;4937947;29;20220;-78
2024/02/01 14:36:43;;;;;;;5.20;1.13;;;10.50;99.90;;;;;;4938235;29;20584;-78
2024/02/01 14:39:21;;;;;;;0.93;0.40;;;10.50;99.90;;;;;;4938212;29;20236;-76
2024/02/01 14:41:51;;;;;;;4.70;0.83;;;10.40;99.90;;;;;;4938187;29;20211;-78
2024/02/01 14:44:18;;;;;;;4.07;0.70;;;10.30;99.90;;;;;;4938045;29;20671;-77
2024/02/01 14:46:47;;;;;;;4.47;0.70;;;10.40;99.90;;;;;;4938352;29;20313;-76
2024/02/01 14:49:14;;;;;;;1.40;0.60;;;10.50;99.90;;;;;;4938246;29;20208;-76
2024/02/01 14:51:41;;;;;;;4.57;0.70;;;10.10;99.90;;;;;;4938341;29;20619;-77
2024/02/01 14:54:08;;;;;;;2.93;0.70;;;10.00;99.90;;;;;;4937929;29;20240;-79
2024/02/01 14:56:36;;;;;;;6.90;0.87;;;10.00;99.90;;;;;;4937803;29;20234;-77
2024/02/01 14:59:04;;;;;;;6.93;0.87;;;10.00;99.90;;;;;;4938083;29;20236;-76
2024/02/01 15:01:31;;;;;;;4.30;1.20;;;10.10;99.90;;;;;;4937947;29;20209;-75
2024/02/01 15:04:01;;;;;;;6.23;1.30;;;10.10;99.90;;;;;;4937728;29;20213;-78
2024/02/01 15:06:28;;;;;;;6.30;0.60;;;10.30;99.90;;;;;;4937681;29;20240;-78
2024/02/01 15:08:59;;;;;;;3.73;0.60;;;10.40;99.90;;;;;;4937501;29;20260;-75
2024/02/01 15:11:26;;;;;;;3.93;0.70;;;10.50;99.90;;;;;;4938039;29;20315;-75
2024/02/01 15:13:54;;;;;;;5.67;0.90;;;10.50;99.90;;;;;;4938535;29;20255;-75
2024/02/01 15:16:21;;;;;;;6.17;1.00;;;10.60;99.90;;;;;;4948624;29;20288;-75
2024/02/01 15:18:48;;;;;;;3.53;0.50;;;10.50;99.90;;;;;;4957054;29;20236;-75
2024/02/01 15:21:16;;;;;;;4.67;0.80;;;10.40;99.90;;;;;;4956146;29;20209;-76
2024/02/01 15:23:44;;;;;;;1.73;0.40;;;10.10;99.90;;;;;;4941028;29;20209;-76
2024/02/01 15:26:11;;;;;;;5.47;0.63;;;9.90;99.90;;;;;;4954747;29;20221;-75
2024/02/01 15:28:39;;;;;;;7.27;1.73;;;9.90;99.90;;;;;;4956501;29;20197;-75
2024/02/01 15:31:10;;;;;;;3.37;0.70;;;10.00;99.90;;;;;;4942749;29;20216;-76
2024/02/01 15:33:38;;;;;;;7.27;0.90;;;9.90;99.90;;;;;;4938223;29;20224;-77
2024/02/01 15:36:06;;;;;;;6.70;1.03;;;9.90;99.90;;;;;;4937575;29;20229;-77
2024/02/01 15:38:34;;;;;;;7.53;1.00;;;9.90;99.90;;;;;;4937346;29;20233;-77
2024/02/01 15:41:03;;;;;;;4.10;0.83;;;10.00;99.90;;;;;;4936810;29;20739;-76
2024/02/01 15:43:30;;;;;;;3.47;1.17;;;10.00;99.90;;;;;;4937255;29;20213;-80
2024/02/01 15:45:57;;;;;;;5.83;0.63;;;9.90;99.90;;;;;;4936928;29;20264;-78
2024/02/01 15:48:24;;;;;;;2.27;0.50;;;9.80;99.90;;;;;;4936869;29;20256;-78
2024/02/01 15:50:51;;;;;;;5.93;0.73;;;9.80;99.90;;;;;;4936817;29;20208;-77
2024/02/01 15:53:19;;;;;;;6.73;1.07;;;9.70;99.90;;;;;;4936497;29;20217;-78
2024/02/01 15:55:47;;;;;;;4.70;1.20;;;9.60;99.90;;;;;;4936690;29;20233;-77
2024/02/01 15:58:14;;;;;;;2.83;0.70;;;9.80;99.90;;;;;;4936587;29;20680;-77
2024/02/01 16:00:42;;;;;;;3.10;0.97;;;9.60;99.90;;;;;;4936549;29;20237;-77
2024/02/01 16:03:09;;;;;;;4.30;0.83;;;9.50;99.90;;;;;;4936661;29;20280;-78
2024/02/01 16:06:04;;;;;;;2.80;0.67;;;9.40;99.90;;;;;;4936551;29;20268;-77
2024/02/01 16:08:31;;;;;;;4.90;0.60;;;9.40;99.90;;;;;;4937076;29;20263;-78
2024/02/01 16:11:01;;;;;;;4.90;0.70;;;9.30;99.90;;;;;;4936356;29;20608;-81
2024/02/01 16:13:37;;;;;;;6.03;1.00;;;9.20;99.90;;;;;;4936323;29;20251;-80
2024/02/01 16:16:06;;;;;;;5.00;1.30;;;9.20;99.90;;;;;;4936312;29;20263;-80
2024/02/01 16:18:36;;;;;;;5.57;0.97;;;9.10;99.90;;;;;;4936565;29;20260;-80
2024/02/01 16:21:06;;;;;;;5.03;1.10;;;9.00;99.90;;;;;;4936259;29;20209;-79
2024/02/01 16:23:35;;;;;;;3.57;1.10;;;9.00;99.90;;;;;;4936125;29;20217;-77
2024/02/01 16:26:05;;;;;;;6.70;1.77;;;9.00;99.90;;;;;;4935781;29;20229;-81
2024/02/01 16:28:33;;;;;;;5.03;1.47;;;8.90;99.90;;;;;;4936176;29;20236;-78
2024/02/01 16:31:04;;;;;;;4.80;1.10;;;8.90;99.90;;;;;;4936217;29;20264;-79
2024/02/01 16:33:32;;;;;;;2.90;1.03;;;8.90;99.90;;;;;;4936142;29;20679;-80
2024/02/01 16:36:07;;;;;;;6.67;0.73;;;8.90;99.90;;;;;;4935362;29;20260;-79
2024/02/01 16:38:37;;;;;;;1.80;0.67;;;8.90;99.90;;;;;;4935914;29;20216;-80
2024/02/01 16:41:21;;;;;;;3.47;0.50;;;8.90;99.90;;;;;;4935874;29;20296;-79
2024/02/01 16:43:49;;;;;;;6.23;0.97;;;8.80;99.90;;;;;;4936282;29;20267;-80
2024/02/01 16:46:45;;;;;;;5.77;0.73;;;8.70;99.90;;;;;;4935870;29;20229;-80
2024/02/01 16:49:15;;;;;;;4.10;1.00;;;8.60;99.90;;;;;;4935677;29;20219;-80
2024/02/01 16:51:43;;;;;;;2.17;0.70;;;8.60;99.90;;;;;;4935853;29;20248;-78
2024/02/01 16:54:11;;;;;;;4.80;0.67;;;8.60;99.90;;;;;;4935973;29;20252;-80
2024/02/01 16:56:40;;;;;;;9.60;1.10;;;8.60;99.90;;;;;;4935582;29;20267;-77
2024/02/01 16:59:10;;;;;;;2.60;0.57;;;8.60;99.90;;;;;;4935609;29;20232;-77
2024/02/01 17:01:39;;;;;;;4.13;1.00;;;8.50;99.90;;;;;;4935415;29;20608;-78
2024/02/01 17:04:10;;;;;;;5.90;1.17;;;8.50;99.90;;;;;;4935309;29;20656;-80
2024/02/01 17:06:38;;;;;;;9.10;1.33;;;8.30;99.90;;;;;;4935742;29;20240;-80
2024/02/01 17:09:06;;;;;;;4.20;1.20;;;8.30;99.90;;;;;;4935701;29;20694;-80
2024/02/01 17:11:35;;;;;;;10.43;0.80;;;8.20;99.90;;;;;;4935604;29;20684;-80
2024/02/01 17:14:14;;;;;;;5.47;1.10;;;8.20;99.90;;;;;;4935673;29;20211;-80
2024/02/01 17:16:56;;;;;;;3.20;0.60;;;8.10;99.90;;;;;;4935439;29;20232;-80
2024/02/01 17:19:24;;;;;;;2.10;0.80;;;8.10;99.90;;;;;;4935335;29;20232;-79
2024/02/01 17:21:52;;;;;;;3.27;0.70;;;8.10;99.90;;;;;;4935609;29;20308;-81
2024/02/01 17:24:20;;;;;;;5.03;1.03;;;8.00;99.90;;;;;;4935888;29;20212;-80
2024/02/01 17:26:47;;;;;;;3.27;0.80;;;7.90;99.90;;;;;;4935486;29;20232;-80
2024/02/01 17:29:18;;;;;;;8.40;1.60;;;7.80;99.90;;;;;;4935484;29;20258;-80
2024/02/01 17:31:46;;;;;;;3.37;1.17;;;7.80;99.90;;;;;;4935596;29;20240;-80
2024/02/01 17:34:23;;;;;;;5.70;1.60;;;7.70;99.90;;;;;;4935377;29;20231;-80
2024/02/01 17:36:51;;;;;;;8.57;1.10;;;7.50;99.90;;;;;;4935412;29;20267;-80
2024/02/01 17:39:45;;;;;;;7.93;1.03;;;7.50;99.90;;;;;;4935460;29;20667;-80
2024/02/01 17:42:33;;;;;;;3.67;1.20;;;7.40;99.90;;;;;;4935323;29;20244;-80
2024/02/01 17:45:27;;;;;;;3.73;0.83;;;7.30;99.90;;;;;;4935744;29;20213;-80
2024/02/01 17:48:02;;;;;;;4.20;1.00;;;7.10;99.90;;;;;;4937798;29;20287;-80
2024/02/01 17:50:35;;;;;;;9.40;1.43;;;7.00;99.90;;;;;;4939928;29;20212;-80
2024/02/01 17:53:04;;;;;;;7.57;1.10;;;6.90;99.90;;;;;;4939945;29;20212;-84
2024/02/01 17:55:45;;;;;;;4.87;1.30;;;6.80;99.90;;;;;;4935201;29;20224;-83
2024/02/01 17:58:40;;;;;;;4.47;1.90;;;6.80;99.90;;;;;;4935558;29;20209;-81
2024/02/01 18:01:16;;;;;;;3.73;1.47;;;6.70;99.90;;;;;;4939572;29;20271;-83
2024/02/01 18:03:44;;;;;;;6.03;1.37;;;6.70;99.90;;;;;;4956881;28;20204;-82
2024/02/01 18:06:12;;;;;;;7.43;1.60;;;6.60;99.90;;;;;;4937805;29;20285;-83
2024/02/01 18:08:42;;;;;;;4.10;1.40;;;6.50;99.90;;;;;;4940828;28;20724;-83
2024/02/01 18:11:11;;;;;;;5.87;2.07;;;6.50;99.90;;;;;;4941989;28;20216;-83
2024/02/01 18:13:39;;;;;;;15.50;2.63;;;6.40;99.90;;;;;;4943625;28;20209;-83
2024/02/01 18:16:09;;;;;;;7.13;2.03;;;6.40;99.90;;;;;;4937314;29;20260;-82
2024/02/01 18:18:37;;;;;;;10.33;2.40;;;6.20;99.90;;;;;;4938417;29;20234;-80
2024/02/01 18:21:05;;;;;;;8.43;3.20;;;6.20;99.90;;;;;;4930271;29;20682;-78
2024/02/01 18:23:34;;;;;;;9.13;2.40;;;6.20;99.90;;;;;;4945542;29;20208;-78
2024/02/01 18:26:06;;;;;;;5.57;2.40;;;6.20;99.90;;;;;;4935387;29;20307;-78
2024/02/01 18:28:35;;;;;;;11.60;2.83;;;6.10;99.90;;;;;;4934502;29;20209;-79
2024/02/01 18:31:03;;;;;;;8.73;2.80;;;6.00;99.90;;;;;;4926475;29;20265;-79
2024/02/01 18:33:33;;;;;;;10.20;3.40;;;6.00;99.90;;;;;;4938470;29;20572;-78
2024/02/01 18:36:01;;;;;;;13.80;2.87;;;5.90;99.90;;;;;;4927670;29;20225;-82
2024/02/01 18:38:55;;;;;;;11.90;2.87;;;5.80;99.90;;;;;;4938030;29;20260;-79
2024/02/01 18:41:23;;;;;;;10.93;3.10;;;5.60;99.90;;;;;;4929065;29;20583;-78
2024/02/01 18:43:50;;;;;;;7.67;2.70;;;5.60;99.90;;;;;;4938314;29;20216;-78
2024/02/01 18:46:40;;;;;;;7.37;3.27;;;5.50;99.90;;;;;;4943778;29;20224;-80
2024/02/01 18:49:11;;;;;;;13.63;3.53;;;5.50;99.90;;;;;;4939710;28;20756;-81
2024/02/01 18:52:01;;;;;;;14.03;3.40;;;5.50;99.90;;;;;;4931961;29;20248;-80
2024/02/01 18:54:32;;;;;;;8.83;2.80;;;5.40;99.90;;;;;;4937775;29;20612;-80
2024/02/01 18:57:00;;;;;;;9.47;2.97;;;5.40;99.90;;;;;;4934735;29;20238;-81
2024/02/01 18:59:56;;;;;;;12.03;3.27;;;5.40;99.90;;;;;;4938139;29;20212;-81
2024/02/01 19:02:47;;;;;;;11.63;3.53;;;5.40;99.90;;;;;;4937153;29;20219;-79
2024/02/01 19:05:16;;;;;;;9.33;3.30;;;5.40;99.90;;;;;;4936684;29;20205;-78
2024/02/01 19:07:44;;;;;;;10.70;3.83;;;5.40;99.90;;;;;;4956247;28;20227;-78
2024/02/01 19:10:38;;;;;;;12.77;3.50;;;5.40;99.90;;;;;;4951982;28;20284;-78
2024/02/01 19:13:23;;;;;;;7.53;3.33;;;5.50;99.90;;;;;;4956303;28;20247;-79
2024/02/01 19:15:51;;;;;;;10.47;3.17;;;5.50;99.90;;;;;;4950469;28;20236;-79
2024/02/01 19:18:18;;;;;;;9.83;3.00;;;5.30;99.90;;;;;;4976457;28;20208;-79
2024/02/01 19:20:48;;;;;;;8.00;3.30;;;5.10;99.90;;;;;;4956753;28;20320;-79
2024/02/01 19:23:19;;;;;;;7.70;2.70;;;5.10;99.90;;;;;;4947908;29;20205;-78
2024/02/01 19:25:47;;;;;;;6.47;3.00;;;5.10;99.90;;;;;;4937985;29;20779;-78
2024/02/01 19:28:42;;;;;;;7.40;3.03;;;5.20;99.90;;;;;;4939651;29;20209;-79
2024/02/01 19:31:09;;;;;;;11.07;3.03;;;5.20;99.90;;;;;;4934878;29;20209;-80
2024/02/01 19:33:41;;;;;;;9.13;3.07;;;5.30;99.90;;;;;;4937104;29;20292;-79
2024/02/01 19:36:28;;;;;;;7.30;2.93;;;5.20;99.90;;;;;;4951542;28;20240;-79
2024/02/01 19:38:56;;;;;;;8.13;2.93;;;5.10;99.90;;;;;;4944864;28;20224;-80
2024/02/01 19:41:23;;;;;;;9.17;2.57;;;4.90;99.90;;;;;;4949462;28;20634;-79
2024/02/01 19:43:51;;;;;;;5.57;2.70;;;4.90;99.90;;;;;;4936896;29;20291;-79
2024/02/01 19:46:18;;;;;;;7.63;3.20;;;4.90;99.90;;;;;;4943159;29;20224;-80
2024/02/01 19:48:44;;;;;;;8.30;2.50;;;4.80;99.90;;;;;;4955929;28;20544;-77
2024/02/01 19:51:11;;;;;;;8.40;2.63;;;4.80;99.90;;;;;;4955152;28;20267;-79
2024/02/01 19:53:39;;;;;;;5.73;2.20;;;4.90;99.90;;;;;;4955362;28;20563;-79
2024/02/01 19:56:07;;;;;;;11.87;2.57;;;4.90;99.90;;;;;;4930839;28;20742;-80
2024/02/01 19:58:34;;;;;;;9.63;2.63;;;4.90;99.90;;;;;;4954777;28;20607;-79
2024/02/01 20:01:01;;;;;;;7.50;2.67;;;4.90;99.90;;;;;;4958457;28;20239;-78
2024/02/01 20:03:28;;;;;;;6.80;2.23;;;4.80;99.90;;;;;;4956854;28;20211;-83
2024/02/01 20:05:55;;;;;;;5.53;2.83;;;4.90;99.90;;;;;;4937737;29;20620;-80
2024/02/01 20:08:22;;;;;;;9.37;2.33;;;4.90;99.90;;;;;;4937388;29;20209;-79
2024/02/01 20:10:51;;;;;;;10.87;2.63;;;4.90;99.90;;;;;;4935647;29;20624;-79
2024/02/01 20:13:18;;;;;;;9.20;3.50;;;4.80;99.90;;;;;;4935646;29;20213;-78
2024/02/01 20:15:45;;;;;;;6.77;2.27;;;4.80;99.90;;;;;;4936284;29;20225;-78
2024/02/01 20:18:18;;;;;;;6.60;2.60;;;4.70;99.90;;;;;;4936570;29;20213;-78
2024/02/01 20:20:46;;;;;;;13.03;2.40;;;4.70;99.90;;;;;;4936589;29;20288;-79
2024/02/01 20:23:16;;;;;;;7.57;2.37;;;4.80;99.90;;;;;;4937438;29;20215;-78
2024/02/01 20:25:44;;;;;;;5.37;2.23;;;4.90;99.90;;;;;;4936455;29;20232;-78
2024/02/01 20:28:32;;;;;;;7.00;2.30;;;4.90;99.90;;;;;;4936761;29;20261;-79
2024/02/01 20:30:59;;;;;;;7.17;2.60;;;4.80;99.90;;;;;;4936721;28;20208;-79
2024/02/01 20:33:26;;;;;;;10.20;3.00;;;4.70;99.90;;;;;;4935787;29;20221;-79
2024/02/01 20:35:53;;;;;;;8.47;2.47;;;4.80;99.90;;;;;;4935623;28;20569;-79
2024/02/01 20:38:20;;;;;;;10.60;3.03;;;4.80;99.90;;;;;;4935979;29;20272;-79
2024/02/01 20:40:52;;;;;;;15.37;4.23;;;4.70;99.90;;;;;;4935723;29;20236;-79
2024/02/01 20:43:20;;;;;;;16.07;3.70;;;4.70;99.90;;;;;;4954019;28;20211;-78
2024/02/01 20:45:51;;;;;;;7.30;2.80;;;4.60;99.90;;;;;;4954174;28;20263;-78
2024/02/01 20:48:27;;;;;;;12.03;3.43;;;4.50;99.90;;;;;;4954160;28;20278;-78
2024/02/01 20:50:54;;;;;;;11.80;3.67;;;4.60;99.90;;;;;;4954068;28;20804;-78
2024/02/01 20:53:43;;;;;;;9.40;3.00;;;4.70;99.90;;;;;;4954551;28;20216;-79
2024/02/01 20:56:19;;;;;;;6.33;2.87;;;4.80;99.90;;;;;;4935459;29;20236;-79
2024/02/01 20:58:55;;;;;;;8.83;2.50;;;4.80;99.90;;;;;;4935565;29;20211;-79
2024/02/01 21:01:25;;;;;;;9.57;3.10;;;4.70;99.90;;;;;;4935497;29;20244;-79
2024/02/01 21:03:53;;;;;;;10.23;3.03;;;4.80;99.90;;;;;;4936458;29;20211;-79
2024/02/01 21:06:20;;;;;;;6.37;2.53;;;4.80;99.90;;;;;;4946340;28;20314;-79
2024/02/01 21:08:47;;;;;;;8.57;3.70;;;4.90;99.90;;;;;;4950093;28;20209;-79
2024/02/01 21:11:47;;;;;;;5.07;1.90;;;5.00;99.90;;;;;;4947659;28;20226;-82
2024/02/01 21:14:43;;;;;;;8.83;2.60;;;5.10;99.90;;;;;;4931805;29;20212;-82
2024/02/01 21:17:16;;;;;;;10.67;2.67;;;5.10;99.90;;;;;;4935702;29;20296;-81